sensor_id;sensor_type;location;lat;lon;timestamp;temperature;humidity
4699;DHT22;33708;49.466;11.176;2023-02-24T00:01:59;9.10;99.90
4699;DHT22;33708;49.466;11.176;2023-02-24T00:04:27;9.20;99.90
4699;DHT22;33708;49.466;11.176;2023-02-24T00:06:54;9.30;99.90
4699;DHT22;33708;49.466;11.176;2023-02-24T00:09:25;9.30;99.90
4699;DHT22;33708;49.466;11.176;2023-02-24T00:11:57;9.10;99.90
4699;DHT22;33708;49.466;11.176;2023-02-24T00:14:25;9.00;99.90
4699;DHT22;33708;49.466;11.176;2023-02-24T00:16:52;8.80;99.90
4699;DHT22;33708;49.466;11.176;2023-02-24T00:19:21;8.70;99.90
4699;DHT22;33708;49.466;11.176;2023-02-24T00:21:48;8.80;99.90
4699;DHT22;33708;49.466;11.176;2023-02-24T00:24:14;9.00;99.90
4699;DHT22;33708;49.466;11.176;2023-02-24T00:26:40;9.00;99.90
4699;DHT22;33708;49.466;11.176;2023-02-24T00:29:08;9.20;99.90
4699;DHT22;33708;49.466;11.176;2023-02-24T00:31:35;9.20;99.90
4699;DHT22;33708;49.466;11.176;2023-02-24T00:34:04;9.20;99.90
4699;DHT22;33708;49.466;11.176;2023-02-24T00:36:31;9.30;99.90
4699;DHT22;33708;49.466;11.176;2023-02-24T00:39:07;9.30;99.90
4699;DHT22;33708;49.466;11.176;2023-02-24T00:41:36;9.30;99.90
4699;DHT22;33708;49.466;11.176;2023-02-24T00:44:05;9.40;99.90
4699;DHT22;33708;49.466;11.176;2023-02-24T00:46:43;9.40;99.90
4699;DHT22;33708;49.466;11.176;2023-02-24T00:49:16;9.30;99.90
4699;DHT22;33708;49.466;11.176;2023-02-24T00:51:45;9.40;99.90
4699;DHT22;33708;49.466;11.176;2023-02-24T00:54:11;9.20;99.90
4699;DHT22;33708;49.466;11.176;2023-02-24T00:56:40;9.10;99.90
4699;DHT22;33708;49.466;11.176;2023-02-24T00:59:06;9.00;99.90
4699;DHT22;33708;49.466;11.176;2023-02-24T01:01:32;8.90;99.90
4699;DHT22;33708;49.466;11.176;2023-02-24T01:04:03;8.90;99.90
4699;DHT22;33708;49.466;11.176;2023-02-24T01:06:40;8.90;99.90
4699;DHT22;33708;49.466;11.176;2023-02-24T01:09:08;8.90;99.90
4699;DHT22;33708;49.466;11.176;2023-02-24T01:11:37;9.00;99.90
4699;DHT22;33708;49.466;11.176;2023-02-24T01:14:23;8.80;99.90
4699;DHT22;33708;49.466;11.176;2023-02-24T01:16:49;8.80;99.90
4699;DHT22;33708;49.466;11.176;2023-02-24T01:19:20;8.90;99.90
4699;DHT22;33708;49.466;11.176;2023-02-24T01:21:46;9.00;99.90
4699;DHT22;33708;49.466;11.176;2023-02-24T01:24:16;9.10;99.90
4699;DHT22;33708;49.466;11.176;2023-02-24T01:26:41;8.90;99.90
4699;DHT22;33708;49.466;11.176;2023-02-24T01:29:07;9.00;99.90
4699;DHT22;33708;49.466;11.176;2023-02-24T01:31:37;9.00;99.90
4699;DHT22;33708;49.466;11.176;2023-02-24T01:34:04;8.90;99.90
4699;DHT22;33708;49.466;11.176;2023-02-24T01:36:31;8.90;99.90
4699;DHT22;33708;49.466;11.176;2023-02-24T01:38:58;9.10;99.90
4699;DHT22;33708;49.466;11.176;2023-02-24T01:41:24;8.90;99.90
4699;DHT22;33708;49.466;11.176;2023-02-24T01:46:38;9.10;99.90
4699;DHT22;33708;49.466;11.176;2023-02-24T01:49:32;9.10;99.90
4699;DHT22;33708;49.466;11.176;2023-02-24T01:52:08;8.90;99.90
4699;DHT22;33708;49.466;11.176;2023-02-24T01:54:45;8.90;99.90
4699;DHT22;33708;49.466;11.176;2023-02-24T01:57:15;9.10;99.90
4699;DHT22;33708;49.466;11.176;2023-02-24T01:59:46;9.20;99.90
4699;DHT22;33708;49.466;11.176;2023-02-24T02:02:12;9.30;99.90
4699;DHT22;33708;49.466;11.176;2023-02-24T02:04:39;9.30;99.90
4699;DHT22;33708;49.466;11.176;2023-02-24T02:07:12;9.10;99.90
4699;DHT22;33708;49.466;11.176;2023-02-24T02:09:39;9.00;99.90
4699;DHT22;33708;49.466;11.176;2023-02-24T02:12:08;8.80;99.90
4699;DHT22;33708;49.466;11.176;2023-02-24T02:14:39;8.70;99.90
4699;DHT22;33708;49.466;11.176;2023-02-24T02:25:39;8.80;99.90
4699;DHT22;33708;49.466;11.176;2023-02-24T02:39:33;9.00;99.90
4699;DHT22;33708;49.466;11.176;2023-02-24T02:42:05;9.10;99.90
4699;DHT22;33708;49.466;11.176;2023-02-24T02:44:47;9.00;99.90
4699;DHT22;33708;49.466;11.176;2023-02-24T02:52:59;9.10;99.90
4699;DHT22;33708;49.466;11.176;2023-02-24T02:55:41;9.10;99.90
4699;DHT22;33708;49.466;11.176;2023-02-24T02:58:14;9.00;99.90
4699;DHT22;33708;49.466;11.176;2023-02-24T03:00:49;9.20;99.90
4699;DHT22;33708;49.466;11.176;2023-02-24T03:03:29;9.20;99.90
4699;DHT22;33708;49.466;11.176;2023-02-24T03:06:12;9.10;99.90
4699;DHT22;33708;49.466;11.176;2023-02-24T03:08:43;9.10;99.90
4699;DHT22;33708;49.466;11.176;2023-02-24T03:11:15;9.10;99.90
4699;DHT22;33708;49.466;11.176;2023-02-24T03:13:44;9.10;99.90
4699;DHT22;33708;49.466;11.176;2023-02-24T03:16:15;9.00;99.90
4699;DHT22;33708;49.466;11.176;2023-02-24T03:18:49;9.10;99.90
4699;DHT22;33708;49.466;11.176;2023-02-24T03:21:38;8.90;99.90
4699;DHT22;33708;49.466;11.176;2023-02-24T03:24:05;9.10;99.90
4699;DHT22;33708;49.466;11.176;2023-02-24T03:26:50;9.10;99.90
4699;DHT22;33708;49.466;11.176;2023-02-24T03:29:21;9.10;99.90
4699;DHT22;33708;49.466;11.176;2023-02-24T03:37:07;9.00;99.90
4699;DHT22;33708;49.466;11.176;2023-02-24T03:39:33;9.00;99.90
4699;DHT22;33708;49.466;11.176;2023-02-24T03:42:08;9.10;99.90
4699;DHT22;33708;49.466;11.176;2023-02-24T03:44:36;9.20;99.90
4699;DHT22;33708;49.466;11.176;2023-02-24T03:47:01;9.20;99.90
4699;DHT22;33708;49.466;11.176;2023-02-24T03:49:27;9.20;99.90
4699;DHT22;33708;49.466;11.176;2023-02-24T03:57:23;9.20;99.90
4699;DHT22;33708;49.466;11.176;2023-02-24T04:00:07;9.20;99.90
4699;DHT22;33708;49.466;11.176;2023-02-24T04:06:44;9.20;99.90
4699;DHT22;33708;49.466;11.176;2023-02-24T04:12:15;9.20;99.90
4699;DHT22;33708;49.466;11.176;2023-02-24T04:14:53;9.30;99.90
4699;DHT22;33708;49.466;11.176;2023-02-24T04:17:43;9.30;99.90
4699;DHT22;33708;49.466;11.176;2023-02-24T04:20:13;9.20;99.90
4699;DHT22;33708;49.466;11.176;2023-02-24T04:22:43;9.10;99.90
4699;DHT22;33708;49.466;11.176;2023-02-24T04:25:15;8.90;99.90
4699;DHT22;33708;49.466;11.176;2023-02-24T04:27:43;8.90;99.90
4699;DHT22;33708;49.466;11.176;2023-02-24T04:30:11;8.90;99.90
4699;DHT22;33708;49.466;11.176;2023-02-24T04:32:37;8.90;99.90
4699;DHT22;33708;49.466;11.176;2023-02-24T04:35:08;8.90;99.90
4699;DHT22;33708;49.466;11.176;2023-02-24T04:37:36;9.00;99.90
4699;DHT22;33708;49.466;11.176;2023-02-24T04:40:05;8.80;99.90
4699;DHT22;33708;49.466;11.176;2023-02-24T04:42:40;8.90;99.90
4699;DHT22;33708;49.466;11.176;2023-02-24T04:45:16;8.90;99.90
4699;DHT22;33708;49.466;11.176;2023-02-24T04:47:46;9.00;99.90
4699;DHT22;33708;49.466;11.176;2023-02-24T04:50:19;9.10;99.90
4699;DHT22;33708;49.466;11.176;2023-02-24T04:52:59;9.20;99.90
4699;DHT22;33708;49.466;11.176;2023-02-24T04:55:26;9.20;99.90
4699;DHT22;33708;49.466;11.176;2023-02-24T04:57:59;9.20;99.90
4699;DHT22;33708;49.466;11.176;2023-02-24T05:00:26;9.10;99.90
4699;DHT22;33708;49.466;11.176;2023-02-24T05:02:55;9.20;99.90
4699;DHT22;33708;49.466;11.176;2023-02-24T05:05:22;9.10;99.90
4699;DHT22;33708;49.466;11.176;2023-02-24T05:10:19;9.40;99.90
4699;DHT22;33708;49.466;11.176;2023-02-24T05:12:44;9.10;99.90
4699;DHT22;33708;49.466;11.176;2023-02-24T05:15:11;9.10;99.90
4699;DHT22;33708;49.466;11.176;2023-02-24T05:17:37;9.00;99.90
4699;DHT22;33708;49.466;11.176;2023-02-24T05:20:03;8.90;99.90
4699;DHT22;33708;49.466;11.176;2023-02-24T05:22:48;8.80;99.90
4699;DHT22;33708;49.466;11.176;2023-02-24T05:25:18;9.10;99.90
4699;DHT22;33708;49.466;11.176;2023-02-24T05:27:44;8.80;99.90
4699;DHT22;33708;49.466;11.176;2023-02-24T05:30:10;8.80;99.90
4699;DHT22;33708;49.466;11.176;2023-02-24T05:32:36;9.00;99.90
4699;DHT22;33708;49.466;11.176;2023-02-24T05:35:03;8.80;99.90
4699;DHT22;33708;49.466;11.176;2023-02-24T05:37:28;8.90;99.90
4699;DHT22;33708;49.466;11.176;2023-02-24T05:39:57;9.00;99.90
4699;DHT22;33708;49.466;11.176;2023-02-24T05:42:25;9.00;99.90
4699;DHT22;33708;49.466;11.176;2023-02-24T05:44:52;9.20;99.90
4699;DHT22;33708;49.466;11.176;2023-02-24T05:47:18;9.20;99.90
4699;DHT22;33708;49.466;11.176;2023-02-24T05:49:45;9.20;99.90
4699;DHT22;33708;49.466;11.176;2023-02-24T05:52:12;9.20;99.90
4699;DHT22;33708;49.466;11.176;2023-02-24T05:54:42;9.20;99.90
4699;DHT22;33708;49.466;11.176;2023-02-24T05:57:15;9.10;99.90
4699;DHT22;33708;49.466;11.176;2023-02-24T05:59:43;9.20;99.90
4699;DHT22;33708;49.466;11.176;2023-02-24T06:02:11;9.00;99.90
4699;DHT22;33708;49.466;11.176;2023-02-24T06:04:41;9.00;99.90
4699;DHT22;33708;49.466;11.176;2023-02-24T06:07:22;8.90;99.90
4699;DHT22;33708;49.466;11.176;2023-02-24T06:09:52;8.80;99.90
4699;DHT22;33708;49.466;11.176;2023-02-24T06:12:20;8.90;99.90
4699;DHT22;33708;49.466;11.176;2023-02-24T06:14:46;8.90;99.90
4699;DHT22;33708;49.466;11.176;2023-02-24T06:17:16;9.00;99.90
4699;DHT22;33708;49.466;11.176;2023-02-24T06:19:49;8.90;99.90
4699;DHT22;33708;49.466;11.176;2023-02-24T06:22:17;9.10;99.90
4699;DHT22;33708;49.466;11.176;2023-02-24T06:24:47;9.10;99.90
4699;DHT22;33708;49.466;11.176;2023-02-24T06:27:18;9.00;99.90
4699;DHT22;33708;49.466;11.176;2023-02-24T06:29:45;8.90;99.90
4699;DHT22;33708;49.466;11.176;2023-02-24T06:32:14;9.20;99.90
4699;DHT22;33708;49.466;11.176;2023-02-24T06:34:40;9.00;99.90
4699;DHT22;33708;49.466;11.176;2023-02-24T06:37:07;9.10;99.90
4699;DHT22;33708;49.466;11.176;2023-02-24T06:39:34;9.20;99.90
4699;DHT22;33708;49.466;11.176;2023-02-24T06:42:01;9.20;99.90
4699;DHT22;33708;49.466;11.176;2023-02-24T06:44:30;9.20;99.90
4699;DHT22;33708;49.466;11.176;2023-02-24T06:46:56;9.20;99.90
4699;DHT22;33708;49.466;11.176;2023-02-24T06:49:23;9.20;99.90
4699;DHT22;33708;49.466;11.176;2023-02-24T06:51:49;9.40;99.90
4699;DHT22;33708;49.466;11.176;2023-02-24T06:54:15;9.70;99.90
4699;DHT22;33708;49.466;11.176;2023-02-24T06:56:41;9.40;99.90
4699;DHT22;33708;49.466;11.176;2023-02-24T06:59:07;9.50;99.90
4699;DHT22;33708;49.466;11.176;2023-02-24T07:01:49;9.40;99.90
4699;DHT22;33708;49.466;11.176;2023-02-24T07:04:15;9.60;99.90
4699;DHT22;33708;49.466;11.176;2023-02-24T07:06:43;9.60;99.90
4699;DHT22;33708;49.466;11.176;2023-02-24T07:09:11;9.70;99.90
4699;DHT22;33708;49.466;11.176;2023-02-24T07:11:39;9.50;99.90
4699;DHT22;33708;49.466;11.176;2023-02-24T07:14:06;9.50;99.90
4699;DHT22;33708;49.466;11.176;2023-02-24T07:16:33;9.60;99.90
4699;DHT22;33708;49.466;11.176;2023-02-24T07:19:05;9.70;99.90
4699;DHT22;33708;49.466;11.176;2023-02-24T07:21:37;9.50;99.90
4699;DHT22;33708;49.466;11.176;2023-02-24T07:24:09;9.70;99.90
4699;DHT22;33708;49.466;11.176;2023-02-24T07:26:41;9.90;99.90
4699;DHT22;33708;49.466;11.176;2023-02-24T07:29:10;9.80;99.90
4699;DHT22;33708;49.466;11.176;2023-02-24T07:31:38;9.70;99.90
4699;DHT22;33708;49.466;11.176;2023-02-24T07:34:04;9.70;99.90
4699;DHT22;33708;49.466;11.176;2023-02-24T07:36:31;9.70;99.90
4699;DHT22;33708;49.466;11.176;2023-02-24T07:39:04;9.90;99.90
4699;DHT22;33708;49.466;11.176;2023-02-24T07:41:29;10.10;99.90
4699;DHT22;33708;49.466;11.176;2023-02-24T07:43:56;9.80;99.90
4699;DHT22;33708;49.466;11.176;2023-02-24T07:46:25;9.90;99.90
4699;DHT22;33708;49.466;11.176;2023-02-24T07:48:53;10.00;99.90
4699;DHT22;33708;49.466;11.176;2023-02-24T07:51:25;10.20;99.90
4699;DHT22;33708;49.466;11.176;2023-02-24T07:53:56;9.70;99.90
4699;DHT22;33708;49.466;11.176;2023-02-24T07:56:24;9.80;99.90
4699;DHT22;33708;49.466;11.176;2023-02-24T07:58:57;9.80;99.90
4699;DHT22;33708;49.466;11.176;2023-02-24T08:01:27;9.90;99.90
4699;DHT22;33708;49.466;11.176;2023-02-24T08:03:58;9.80;99.90
4699;DHT22;33708;49.466;11.176;2023-02-24T08:06:32;9.80;99.90
4699;DHT22;33708;49.466;11.176;2023-02-24T08:09:08;9.90;99.90
4699;DHT22;33708;49.466;11.176;2023-02-24T08:11:49;9.80;99.90
4699;DHT22;33708;49.466;11.176;2023-02-24T08:14:19;10.00;99.90
4699;DHT22;33708;49.466;11.176;2023-02-24T08:16:49;10.10;99.90
4699;DHT22;33708;49.466;11.176;2023-02-24T08:19:18;10.10;99.90
4699;DHT22;33708;49.466;11.176;2023-02-24T08:21:50;10.10;99.90
4699;DHT22;33708;49.466;11.176;2023-02-24T08:24:23;10.00;99.90
4699;DHT22;33708;49.466;11.176;2023-02-24T08:26:55;9.80;99.90
4699;DHT22;33708;49.466;11.176;2023-02-24T08:29:35;10.00;99.90
4699;DHT22;33708;49.466;11.176;2023-02-24T08:32:10;9.90;99.90
4699;DHT22;33708;49.466;11.176;2023-02-24T08:34:36;9.70;99.90
4699;DHT22;33708;49.466;11.176;2023-02-24T08:37:02;9.60;99.90
4699;DHT22;33708;49.466;11.176;2023-02-24T08:39:28;9.80;99.90
4699;DHT22;33708;49.466;11.176;2023-02-24T08:41:56;9.80;99.90
4699;DHT22;33708;49.466;11.176;2023-02-24T08:44:22;10.00;99.90
4699;DHT22;33708;49.466;11.176;2023-02-24T08:46:48;10.00;99.90
4699;DHT22;33708;49.466;11.176;2023-02-24T08:49:15;10.20;99.90
4699;DHT22;33708;49.466;11.176;2023-02-24T08:51:43;10.00;99.90
4699;DHT22;33708;49.466;11.176;2023-02-24T08:54:21;10.20;99.90
4699;DHT22;33708;49.466;11.176;2023-02-24T08:56:52;10.40;99.90
4699;DHT22;33708;49.466;11.176;2023-02-24T08:59:21;10.30;99.90
4699;DHT22;33708;49.466;11.176;2023-02-24T09:01:55;10.20;99.90
4699;DHT22;33708;49.466;11.176;2023-02-24T09:04:42;10.40;99.90
4699;DHT22;33708;49.466;11.176;2023-02-24T09:07:15;10.60;99.90
4699;DHT22;33708;49.466;11.176;2023-02-24T09:09:42;10.30;99.90
4699;DHT22;33708;49.466;11.176;2023-02-24T09:12:09;10.30;99.90
4699;DHT22;33708;49.466;11.176;2023-02-24T09:14:47;10.10;99.90
4699;DHT22;33708;49.466;11.176;2023-02-24T09:17:15;10.10;99.90
4699;DHT22;33708;49.466;11.176;2023-02-24T09:19:46;10.10;99.90
4699;DHT22;33708;49.466;11.176;2023-02-24T09:22:13;10.20;99.90
4699;DHT22;33708;49.466;11.176;2023-02-24T09:24:42;10.20;99.90
4699;DHT22;33708;49.466;11.176;2023-02-24T09:27:09;9.90;99.90
4699;DHT22;33708;49.466;11.176;2023-02-24T09:29:41;10.00;99.90
4699;DHT22;33708;49.466;11.176;2023-02-24T09:32:14;10.00;99.90
4699;DHT22;33708;49.466;11.176;2023-02-24T09:34:41;10.30;99.90
4699;DHT22;33708;49.466;11.176;2023-02-24T09:37:13;10.40;99.90
4699;DHT22;33708;49.466;11.176;2023-02-24T09:39:52;10.50;99.90
4699;DHT22;33708;49.466;11.176;2023-02-24T09:42:26;10.50;99.90
4699;DHT22;33708;49.466;11.176;2023-02-24T09:44:55;10.40;99.90
4699;DHT22;33708;49.466;11.176;2023-02-24T09:47:32;10.50;99.90
4699;DHT22;33708;49.466;11.176;2023-02-24T09:52:57;11.00;99.90
4699;DHT22;33708;49.466;11.176;2023-02-24T09:58:39;11.70;99.90
4699;DHT22;33708;49.466;11.176;2023-02-24T10:01:47;12.00;99.90
4699;DHT22;33708;49.466;11.176;2023-02-24T10:04:38;12.30;99.90
4699;DHT22;33708;49.466;11.176;2023-02-24T10:07:29;11.90;99.90
4699;DHT22;33708;49.466;11.176;2023-02-24T10:10:10;12.10;99.90
4699;DHT22;33708;49.466;11.176;2023-02-24T10:13:06;12.10;99.90
4699;DHT22;33708;49.466;11.176;2023-02-24T10:15:42;11.60;99.90
4699;DHT22;33708;49.466;11.176;2023-02-24T10:18:27;11.80;99.90
4699;DHT22;33708;49.466;11.176;2023-02-24T10:20:59;11.70;99.90
4699;DHT22;33708;49.466;11.176;2023-02-24T10:23:49;12.00;99.90
4699;DHT22;33708;49.466;11.176;2023-02-24T10:29:49;12.60;99.90
4699;DHT22;33708;49.466;11.176;2023-02-24T10:32:26;13.00;99.90
4699;DHT22;33708;49.466;11.176;2023-02-24T10:34:59;12.70;99.90
4699;DHT22;33708;49.466;11.176;2023-02-24T10:37:24;12.50;99.90
4699;DHT22;33708;49.466;11.176;2023-02-24T10:40:02;12.70;99.90
4699;DHT22;33708;49.466;11.176;2023-02-24T10:42:35;13.00;99.90
4699;DHT22;33708;49.466;11.176;2023-02-24T10:45:24;13.20;99.90
4699;DHT22;33708;49.466;11.176;2023-02-24T10:47:52;13.40;99.90
4699;DHT22;33708;49.466;11.176;2023-02-24T10:50:38;13.40;99.90
4699;DHT22;33708;49.466;11.176;2023-02-24T10:53:14;13.40;99.90
4699;DHT22;33708;49.466;11.176;2023-02-24T10:56:02;13.00;99.90
4699;DHT22;33708;49.466;11.176;2023-02-24T10:58:46;12.60;99.90
4699;DHT22;33708;49.466;11.176;2023-02-24T11:01:32;12.50;99.90
4699;DHT22;33708;49.466;11.176;2023-02-24T11:04:17;12.10;99.90
4699;DHT22;33708;49.466;11.176;2023-02-24T11:07:02;12.00;99.90
4699;DHT22;33708;49.466;11.176;2023-02-24T11:09:35;11.60;99.90
4699;DHT22;33708;49.466;11.176;2023-02-24T11:12:19;11.70;99.90
4699;DHT22;33708;49.466;11.176;2023-02-24T11:15:14;11.70;99.90
4699;DHT22;33708;49.466;11.176;2023-02-24T11:18:00;11.30;99.90
4699;DHT22;33708;49.466;11.176;2023-02-24T11:20:35;11.30;99.90
4699;DHT22;33708;49.466;11.176;2023-02-24T11:23:03;11.60;99.90
4699;DHT22;33708;49.466;11.176;2023-02-24T11:25:38;11.90;99.90
4699;DHT22;33708;49.466;11.176;2023-02-24T11:28:41;12.40;99.90
4699;DHT22;33708;49.466;11.176;2023-02-24T11:36:38;12.60;99.90
4699;DHT22;33708;49.466;11.176;2023-02-24T11:39:40;12.90;99.90
4699;DHT22;33708;49.466;11.176;2023-02-24T11:42:21;12.40;99.90
4699;DHT22;33708;49.466;11.176;2023-02-24T11:52:59;11.40;99.90
4699;DHT22;33708;49.466;11.176;2023-02-24T11:55:37;11.30;99.90
4699;DHT22;33708;49.466;11.176;2023-02-24T11:58:22;11.00;99.90
4699;DHT22;33708;49.466;11.176;2023-02-24T12:04:13;10.90;99.90
4699;DHT22;33708;49.466;11.176;2023-02-24T12:06:47;10.90;99.90
4699;DHT22;33708;49.466;11.176;2023-02-24T12:09:20;11.10;99.90
4699;DHT22;33708;49.466;11.176;2023-02-24T12:12:07;11.10;99.90
4699;DHT22;33708;49.466;11.176;2023-02-24T12:20:14;11.70;99.90
4699;DHT22;33708;49.466;11.176;2023-02-24T12:22:57;11.70;99.90
4699;DHT22;33708;49.466;11.176;2023-02-24T12:25:27;11.90;99.90
4699;DHT22;33708;49.466;11.176;2023-02-24T12:28:14;11.80;99.90
4699;DHT22;33708;49.466;11.176;2023-02-24T12:30:49;11.80;99.90
4699;DHT22;33708;49.466;11.176;2023-02-24T12:36:11;12.40;99.90
4699;DHT22;33708;49.466;11.176;2023-02-24T12:38:54;12.40;99.90
4699;DHT22;33708;49.466;11.176;2023-02-24T12:46:55;12.40;99.90
4699;DHT22;33708;49.466;11.176;2023-02-24T12:49:48;12.30;99.90
4699;DHT22;33708;49.466;11.176;2023-02-24T12:55:16;12.30;99.90
4699;DHT22;33708;49.466;11.176;2023-02-24T12:58:01;12.40;99.90
4699;DHT22;33708;49.466;11.176;2023-02-24T13:03:51;12.30;99.90
4699;DHT22;33708;49.466;11.176;2023-02-24T13:06:28;12.40;99.90
4699;DHT22;33708;49.466;11.176;2023-02-24T13:14:25;12.30;99.90
4699;DHT22;33708;49.466;11.176;2023-02-24T13:19:33;12.40;99.90
4699;DHT22;33708;49.466;11.176;2023-02-24T13:24:54;12.20;99.90
4699;DHT22;33708;49.466;11.176;2023-02-24T13:27:29;12.40;99.90
4699;DHT22;33708;49.466;11.176;2023-02-24T13:29:57;12.50;99.90
4699;DHT22;33708;49.466;11.176;2023-02-24T13:32:28;12.60;99.90
4699;DHT22;33708;49.466;11.176;2023-02-24T13:34:56;12.30;99.90
4699;DHT22;33708;49.466;11.176;2023-02-24T13:37:36;12.20;99.90
4699;DHT22;33708;49.466;11.176;2023-02-24T13:40:31;12.30;99.90
4699;DHT22;33708;49.466;11.176;2023-02-24T13:45:28;12.20;99.90
4699;DHT22;33708;49.466;11.176;2023-02-24T13:53:39;12.30;99.90
4699;DHT22;33708;49.466;11.176;2023-02-24T14:01:59;11.80;99.90
4699;DHT22;33708;49.466;11.176;2023-02-24T14:04:27;11.90;99.90
4699;DHT22;33708;49.466;11.176;2023-02-24T14:06:58;12.10;99.90
4699;DHT22;33708;49.466;11.176;2023-02-24T14:09:29;12.00;99.90
4699;DHT22;33708;49.466;11.176;2023-02-24T14:12:03;11.90;99.90
4699;DHT22;33708;49.466;11.176;2023-02-24T14:14:30;11.50;99.90
4699;DHT22;33708;49.466;11.176;2023-02-24T14:16:56;11.40;99.90
4699;DHT22;33708;49.466;11.176;2023-02-24T14:19:24;11.40;99.90
4699;DHT22;33708;49.466;11.176;2023-02-24T14:21:55;11.70;99.90
4699;DHT22;33708;49.466;11.176;2023-02-24T14:24:21;11.70;99.90
4699;DHT22;33708;49.466;11.176;2023-02-24T14:26:52;11.70;99.90
4699;DHT22;33708;49.466;11.176;2023-02-24T14:29:24;11.30;99.90
4699;DHT22;33708;49.466;11.176;2023-02-24T14:31:53;11.30;99.90
4699;DHT22;33708;49.466;11.176;2023-02-24T14:34:29;11.30;99.90
4699;DHT22;33708;49.466;11.176;2023-02-24T14:36:57;11.30;99.90
4699;DHT22;33708;49.466;11.176;2023-02-24T14:39:26;11.30;99.90
4699;DHT22;33708;49.466;11.176;2023-02-24T14:44:32;11.10;99.90
4699;DHT22;33708;49.466;11.176;2023-02-24T14:47:01;11.00;99.90
4699;DHT22;33708;49.466;11.176;2023-02-24T14:49:29;11.00;99.90
4699;DHT22;33708;49.466;11.176;2023-02-24T14:51:59;11.10;99.90
4699;DHT22;33708;49.466;11.176;2023-02-24T14:54:45;11.30;99.90
4699;DHT22;33708;49.466;11.176;2023-02-24T14:57:25;11.10;99.90
4699;DHT22;33708;49.466;11.176;2023-02-24T14:59:55;11.30;99.90
4699;DHT22;33708;49.466;11.176;2023-02-24T15:02:26;11.40;99.90
4699;DHT22;33708;49.466;11.176;2023-02-24T15:04:55;11.40;99.90
4699;DHT22;33708;49.466;11.176;2023-02-24T15:07:25;11.40;99.90
4699;DHT22;33708;49.466;11.176;2023-02-24T15:09:52;11.70;99.90
4699;DHT22;33708;49.466;11.176;2023-02-24T15:14:53;11.20;99.90
4699;DHT22;33708;49.466;11.176;2023-02-24T15:17:22;11.40;99.90
4699;DHT22;33708;49.466;11.176;2023-02-24T15:19:48;11.30;99.90
4699;DHT22;33708;49.466;11.176;2023-02-24T15:22:27;11.20;99.90
4699;DHT22;33708;49.466;11.176;2023-02-24T15:25:16;11.40;99.90
4699;DHT22;33708;49.466;11.176;2023-02-24T15:28:00;11.20;99.90
4699;DHT22;33708;49.466;11.176;2023-02-24T15:30:37;11.20;99.90
4699;DHT22;33708;49.466;11.176;2023-02-24T15:33:21;11.30;99.90
4699;DHT22;33708;49.466;11.176;2023-02-24T15:35:50;11.10;99.90
4699;DHT22;33708;49.466;11.176;2023-02-24T15:38:37;11.00;99.90
4699;DHT22;33708;49.466;11.176;2023-02-24T15:41:04;10.80;99.90
4699;DHT22;33708;49.466;11.176;2023-02-24T15:43:36;10.60;99.90
4699;DHT22;33708;49.466;11.176;2023-02-24T15:46:18;10.60;99.90
4699;DHT22;33708;49.466;11.176;2023-02-24T15:48:48;10.70;99.90
4699;DHT22;33708;49.466;11.176;2023-02-24T15:51:37;10.50;99.90
4699;DHT22;33708;49.466;11.176;2023-02-24T15:54:10;10.50;99.90
4699;DHT22;33708;49.466;11.176;2023-02-24T15:56:37;10.30;99.90
4699;DHT22;33708;49.466;11.176;2023-02-24T15:59:03;10.20;99.90
4699;DHT22;33708;49.466;11.176;2023-02-24T16:01:31;10.20;99.90
4699;DHT22;33708;49.466;11.176;2023-02-24T16:04:00;10.10;99.90
4699;DHT22;33708;49.466;11.176;2023-02-24T16:06:26;10.00;99.90
4699;DHT22;33708;49.466;11.176;2023-02-24T16:08:53;9.90;99.90
4699;DHT22;33708;49.466;11.176;2023-02-24T16:11:24;9.80;99.90
4699;DHT22;33708;49.466;11.176;2023-02-24T16:13:54;9.70;99.90
4699;DHT22;33708;49.466;11.176;2023-02-24T16:16:20;9.80;99.90
4699;DHT22;33708;49.466;11.176;2023-02-24T16:18:46;9.70;99.90
4699;DHT22;33708;49.466;11.176;2023-02-24T16:21:12;9.80;99.90
4699;DHT22;33708;49.466;11.176;2023-02-24T16:23:38;9.80;99.90
4699;DHT22;33708;49.466;11.176;2023-02-24T16:26:12;9.70;99.90
4699;DHT22;33708;49.466;11.176;2023-02-24T16:28:39;9.80;99.90
4699;DHT22;33708;49.466;11.176;2023-02-24T16:31:04;9.60;99.90
4699;DHT22;33708;49.466;11.176;2023-02-24T16:33:31;9.40;99.90
4699;DHT22;33708;49.466;11.176;2023-02-24T16:35:58;9.40;99.90
4699;DHT22;33708;49.466;11.176;2023-02-24T16:38:24;9.30;99.90
4699;DHT22;33708;49.466;11.176;2023-02-24T16:40:53;9.30;99.90
4699;DHT22;33708;49.466;11.176;2023-02-24T16:43:19;9.30;99.90
4699;DHT22;33708;49.466;11.176;2023-02-24T16:45:45;9.10;99.90
4699;DHT22;33708;49.466;11.176;2023-02-24T16:48:22;9.40;99.90
4699;DHT22;33708;49.466;11.176;2023-02-24T16:50:49;9.30;99.90
4699;DHT22;33708;49.466;11.176;2023-02-24T16:53:20;9.30;99.90
4699;DHT22;33708;49.466;11.176;2023-02-24T16:55:47;9.20;99.90
4699;DHT22;33708;49.466;11.176;2023-02-24T16:58:13;9.50;99.90
4699;DHT22;33708;49.466;11.176;2023-02-24T17:00:40;9.50;99.90
4699;DHT22;33708;49.466;11.176;2023-02-24T17:03:19;9.50;99.90
4699;DHT22;33708;49.466;11.176;2023-02-24T17:05:46;9.50;99.90
4699;DHT22;33708;49.466;11.176;2023-02-24T17:08:13;9.50;99.90
4699;DHT22;33708;49.466;11.176;2023-02-24T17:10:39;9.40;99.90
4699;DHT22;33708;49.466;11.176;2023-02-24T17:13:11;9.10;99.40
4699;DHT22;33708;49.466;11.176;2023-02-24T17:15:37;9.20;99.90
4699;DHT22;33708;49.466;11.176;2023-02-24T17:18:03;9.10;99.40
4699;DHT22;33708;49.466;11.176;2023-02-24T17:20:29;8.90;97.40
4699;DHT22;33708;49.466;11.176;2023-02-24T17:22:54;9.00;98.30
4699;DHT22;33708;49.466;11.176;2023-02-24T17:25:23;8.80;97.60
4699;DHT22;33708;49.466;11.176;2023-02-24T17:27:50;8.80;96.20
4699;DHT22;33708;49.466;11.176;2023-02-24T17:30:19;8.80;96.10
4699;DHT22;33708;49.466;11.176;2023-02-24T17:32:45;8.90;96.30
4699;DHT22;33708;49.466;11.176;2023-02-24T17:35:10;9.10;96.90
4699;DHT22;33708;49.466;11.176;2023-02-24T17:37:36;8.90;93.80
4699;DHT22;33708;49.466;11.176;2023-02-24T17:40:03;8.80;93.90
4699;DHT22;33708;49.466;11.176;2023-02-24T17:42:29;8.80;93.90
4699;DHT22;33708;49.466;11.176;2023-02-24T17:44:55;8.70;93.90
4699;DHT22;33708;49.466;11.176;2023-02-24T17:47:21;8.70;94.20
4699;DHT22;33708;49.466;11.176;2023-02-24T17:49:46;8.60;93.80
4699;DHT22;33708;49.466;11.176;2023-02-24T17:52:12;8.60;94.00
4699;DHT22;33708;49.466;11.176;2023-02-24T17:54:38;8.50;92.90
4699;DHT22;33708;49.466;11.176;2023-02-24T17:57:04;8.40;93.60
4699;DHT22;33708;49.466;11.176;2023-02-24T17:59:29;8.40;99.90
4699;DHT22;33708;49.466;11.176;2023-02-24T18:01:55;8.50;94.50
4699;DHT22;33708;49.466;11.176;2023-02-24T18:04:20;8.50;93.70
4699;DHT22;33708;49.466;11.176;2023-02-24T18:06:46;8.60;93.60
4699;DHT22;33708;49.466;11.176;2023-02-24T18:09:12;8.70;93.10
4699;DHT22;33708;49.466;11.176;2023-02-24T18:11:38;8.60;90.90
4699;DHT22;33708;49.466;11.176;2023-02-24T18:14:03;8.50;88.80